Skip Navigation Links Skip Navigation Links

Current Weather

Twin County, Galax Hillsville, Va.

For information only: do not use for flight planning or navigation.
Latest weather
Observation time Thursday, December 13, 2018 1:15 PM EST
Local time Thursday, December 13, 2018 1:52 PM EST
Flight conditions Visual Meteorological Conditions
Winds
Wind speed calm
Visibility 10 mi.
Sky condition
Ceiling 5,500 ft. overcast
Cloud layer overcast 5,500 ft.
Temperature 45°F
Dewpoint 31°F
Altimeter 30.21 in.Hg
Derived measurements
Relative humidity 58%
Wind chill 45°F
Density altitude 1501 ft.
Remarks
Fully automated report.
Automated weather observing station with precipitation discriminator.
METAR KHLX 131815Z AUTO 00000KT 10SM OVC055 07/M01 A3021 RMK AO2 T00711006

Settings

Location code

InnerDrive.Weather 4.0.6770.0 Release CLR 4.0.30319.42000
Copyright ©2018 Inner Drive Technology. All rights reserved. Portions Copyright ©1986-2018 David Braverman.

Find weather

Site navigation


Skip Navigation Links

Place info

Page info

PayPal - The safer, easier way to pay online!

Return home.

Copyright ©2018 Inner Drive Technology. Purveyors of fine, hand-crafted computer software. Page printed 2018-12-13T18:52:31 UTC.